PWSweather.com
Personal Weather Stations
Station Observations
KOMOKA
Komoka Village, Komoka, ON N0L IRO

Komoka VillageKomoka, ON N0L IRO

Lat: 42.9542444, Lon: -81.4348861

Elevation: 805

Station Type: Davis Vantage Pro 2

Latest ConditionsUpdated 6:30:30 PM EDT Friday, Jul 1, 2016
Currently Today's Max Today's Min Today's Average
Temperature 65.1°F18.4°C 71.2°F21.8°C 57.4°F14.1°C 63.3°F17.4°C
Dew Point 55.0°F12.8°C 62.6°F17.0°C 53.1°F11.7°C 57.0°F13.9°C
Winds 1.0 mph NNW1.6 kmh NNW 7.0 mph W11.3 kmh W - 1.4 mph 2.3 kmh
Wind Gusts 9.0 mph14.5 kmh 24.0 mph38.6 kmh - -
Humidity 70% 87% 69% 80%
Pressure 29.96 in1014.6 mb 29.96 in1014.6 mb 29.81 in1009.5 mb -
Precipitation - 0.35 in8.9 mm - -
Hour Temp Dew Point Humidity Winds Wind Gusts Pressure Precip Precip Rate Daily Precip Total
06:30 PM 65.1°F18.4°C 55.0°F12.8°C 70% 1.0 mph NNW1.6 kmh NNW 9.0 mph14.5 kmh 29.96 in1014.6 mb 0.00 in0.0 mm 0.00 in0.0 mm 0.35 in8.9 mm
06:23 PM 65.3°F18.5°C 56.1°F13.4°C 72% 1.0 mph NW1.6 kmh NW 9.0 mph14.5 kmh 29.95 in1014.2 mb 0.00 in0.0 mm 0.00 in0.0 mm 0.35 in8.9 mm
06:16 PM 65.5°F18.6°C 56.1°F13.4°C 72% 1.0 mph NNW1.6 kmh NNW 7.0 mph11.3 kmh 29.95 in1014.2 mb 0.00 in0.0 mm 0.00 in0.0 mm 0.35 in8.9 mm
06:09 PM 65.7°F18.7°C 55.9°F13.3°C 71% 3.0 mph NW4.8 kmh NW 15.0 mph24.1 kmh 29.95 in1014.2 mb 0.00 in0.0 mm 0.00 in0.0 mm 0.35 in8.9 mm
06:02 PM 65.8°F18.8°C 55.8°F13.2°C 70% 3.0 mph NNW4.8 kmh NNW 16.0 mph25.7 kmh 29.95 in1014.2 mb 0.00 in0.0 mm 0.00 in0.0 mm 0.35 in8.9 mm
05:55 PM 66.4°F19.1°C 56.7°F13.7°C 71% 3.0 mph NNE4.8 kmh NNE 16.0 mph25.7 kmh 29.94 in1013.9 mb 0.00 in0.0 mm 0.00 in0.0 mm 0.35 in8.9 mm
05:48 PM 66.4°F19.1°C 55.9°F13.3°C 69% 4.0 mph NW6.4 kmh NW 13.0 mph20.9 kmh 29.95 in1014.2 mb 0.00 in0.0 mm 0.00 in0.0 mm 0.35 in8.9 mm
05:41 PM 66.7°F19.3°C 56.7°F13.7°C 70% 4.0 mph NW6.4 kmh NW 13.0 mph20.9 kmh 29.94 in1013.9 mb 0.00 in0.0 mm 0.00 in0.0 mm 0.35 in8.9 mm
05:34 PM 66.9°F19.4°C 56.8°F13.8°C 70% 4.0 mph NW6.4 kmh NW 16.0 mph25.7 kmh 29.94 in1013.9 mb 0.00 in0.0 mm 0.00 in0.0 mm 0.35 in8.9 mm
05:27 PM 67.1°F19.5°C 57.7°F14.3°C 72% 3.0 mph NW4.8 kmh NW 13.0 mph20.9 kmh 29.93 in1013.5 mb 0.00 in0.0 mm 0.00 in0.0 mm 0.35 in8.9 mm
05:20 PM 66.9°F19.4°C 57.2°F14.0°C 71% 4.0 mph NW6.4 kmh NW 23.0 mph37.0 kmh 29.93 in1013.5 mb 0.00 in0.0 mm 0.00 in0.0 mm 0.35 in8.9 mm
05:13 PM 66.9°F19.4°C 57.2°F14.0°C 71% 3.0 mph NW4.8 kmh NW 8.0 mph12.9 kmh 29.93 in1013.5 mb 0.00 in0.0 mm 0.00 in0.0 mm 0.35 in8.9 mm
05:06 PM 67.3°F19.6°C 57.0°F13.9°C 70% 3.0 mph NW4.8 kmh NW 12.0 mph19.3 kmh 29.93 in1013.5 mb 0.00 in0.0 mm 0.00 in0.0 mm 0.35 in8.9 mm
04:59 PM 67.6°F19.8°C 57.9°F14.4°C 71% 4.0 mph NW6.4 kmh NW 12.0 mph19.3 kmh 29.93 in1013.5 mb 0.00 in0.0 mm 0.00 in0.0 mm 0.35 in8.9 mm
04:52 PM 68.2°F20.1°C 57.6°F14.2°C 69% 4.0 mph NW6.4 kmh NW 12.0 mph19.3 kmh 29.92 in1013.2 mb 0.00 in0.0 mm 0.00 in0.0 mm 0.35 in8.9 mm
04:45 PM 68.2°F20.1°C 57.9°F14.4°C 70% 4.0 mph NW6.4 kmh NW 12.0 mph19.3 kmh 29.92 in1013.2 mb 0.00 in0.0 mm 0.00 in0.0 mm 0.35 in8.9 mm
04:38 PM 67.3°F19.6°C 58.6°F14.8°C 74% 5.0 mph NW8.0 kmh NW 17.0 mph27.4 kmh 29.92 in1013.2 mb 0.00 in0.0 mm 0.00 in0.0 mm 0.35 in8.9 mm
04:31 PM 66.7°F19.3°C 57.7°F14.3°C 73% 5.0 mph NW8.0 kmh NW 17.0 mph27.4 kmh 29.92 in1013.2 mb 0.00 in0.0 mm 0.00 in0.0 mm 0.35 in8.9 mm
04:24 PM 66.6°F19.2°C 58.3°F14.6°C 75% 4.0 mph NW6.4 kmh NW 16.0 mph25.7 kmh 29.92 in1013.2 mb 0.00 in0.0 mm 0.00 in0.0 mm 0.35 in8.9 mm
04:17 PM 66.9°F19.4°C 58.5°F14.7°C 74% 3.0 mph NW4.8 kmh NW 9.0 mph14.5 kmh 29.92 in1013.2 mb 0.00 in0.0 mm 0.00 in0.0 mm 0.35 in8.9 mm
04:10 PM 67.5°F19.7°C 59.0°F15.0°C 74% 3.0 mph NW4.8 kmh NW 9.0 mph14.5 kmh 29.91 in1012.9 mb 0.00 in0.0 mm 0.00 in0.0 mm 0.35 in8.9 mm
04:03 PM 66.9°F19.4°C 58.8°F14.9°C 75% 4.0 mph NW6.4 kmh NW 15.0 mph24.1 kmh 29.90 in1012.5 mb 0.00 in0.0 mm 0.00 in0.0 mm 0.35 in8.9 mm
03:56 PM 67.6°F19.8°C 59.2°F15.1°C 74% 4.0 mph NW6.4 kmh NW 12.0 mph19.3 kmh 29.90 in1012.5 mb 0.00 in0.0 mm 0.00 in0.0 mm 0.35 in8.9 mm
03:49 PM 68.5°F20.3°C 59.2°F15.1°C 72% 4.0 mph NW6.4 kmh NW 12.0 mph19.3 kmh 29.90 in1012.5 mb 0.00 in0.0 mm 0.00 in0.0 mm 0.35 in8.9 mm
03:42 PM 68.7°F20.4°C 60.4°F15.8°C 75% 5.0 mph NW8.0 kmh NW 16.0 mph25.7 kmh 29.89 in1012.2 mb 0.00 in0.0 mm 0.00 in0.0 mm 0.35 in8.9 mm
03:35 PM 68.5°F20.3°C 59.9°F15.5°C 74% 4.0 mph NW6.4 kmh NW 16.0 mph25.7 kmh 29.89 in1012.2 mb 0.00 in0.0 mm 0.00 in0.0 mm 0.35 in8.9 mm
03:28 PM 68.7°F20.4°C 60.1°F15.6°C 74% 3.0 mph NW4.8 kmh NW 20.0 mph32.2 kmh 29.89 in1012.2 mb 0.00 in0.0 mm 0.00 in0.0 mm 0.35 in8.9 mm
03:21 PM 69.3°F20.7°C 60.6°F15.9°C 74% 3.0 mph NW4.8 kmh NW 20.0 mph32.2 kmh 29.89 in1012.2 mb 0.00 in0.0 mm 0.00 in0.0 mm 0.35 in8.9 mm
03:14 PM 70.0°F21.1°C 60.1°F15.6°C 71% 4.0 mph NW6.4 kmh NW 13.0 mph20.9 kmh 29.88 in1011.9 mb 0.00 in0.0 mm 0.00 in0.0 mm 0.35 in8.9 mm
03:07 PM 70.3°F21.3°C 59.7°F15.4°C 69% 5.0 mph NW8.0 kmh NW 16.0 mph25.7 kmh 29.88 in1011.9 mb 0.00 in0.0 mm 0.00 in0.0 mm 0.35 in8.9 mm
03:00 PM 70.9°F21.6°C 60.3°F15.7°C 69% 4.0 mph NW6.4 kmh NW 15.0 mph24.1 kmh 29.87 in1011.5 mb 0.00 in0.0 mm 0.00 in0.0 mm 0.35 in8.9 mm
02:53 PM 70.7°F21.5°C 60.8°F16.0°C 71% 5.0 mph NW8.0 kmh NW 16.0 mph25.7 kmh 29.87 in1011.5 mb 0.00 in0.0 mm 0.00 in0.0 mm 0.35 in8.9 mm
02:46 PM 70.5°F21.4°C 60.3°F15.7°C 70% 5.0 mph NW8.0 kmh NW 15.0 mph24.1 kmh 29.87 in1011.5 mb 0.00 in0.0 mm 0.00 in0.0 mm 0.35 in8.9 mm
02:39 PM 70.5°F21.4°C 61.0°F16.1°C 72% 5.0 mph NW8.0 kmh NW 17.0 mph27.4 kmh 29.86 in1011.2 mb 0.00 in0.0 mm 0.00 in0.0 mm 0.35 in8.9 mm
02:32 PM 70.2°F21.2°C 61.2°F16.2°C 73% 5.0 mph NW8.0 kmh NW 17.0 mph27.4 kmh 29.86 in1011.2 mb 0.00 in0.0 mm 0.00 in0.0 mm 0.35 in8.9 mm
02:25 PM 70.0°F21.1°C 60.8°F16.0°C 73% 7.0 mph WNW11.3 kmh WNW 17.0 mph27.4 kmh 29.86 in1011.2 mb 0.00 in0.0 mm 0.00 in0.0 mm 0.35 in8.9 mm
02:18 PM 69.8°F21.0°C 59.9°F15.5°C 71% 5.0 mph NW8.0 kmh NW 24.0 mph38.6 kmh 29.85 in1010.8 mb 0.00 in0.0 mm 0.00 in0.0 mm 0.35 in8.9 mm
02:11 PM 70.3°F21.3°C 61.3°F16.3°C 73% 4.0 mph WNW6.4 kmh WNW 24.0 mph38.6 kmh 29.85 in1010.8 mb 0.00 in0.0 mm 0.00 in0.0 mm 0.35 in8.9 mm
02:04 PM 71.1°F21.7°C 61.2°F16.2°C 71% 3.0 mph NW4.8 kmh NW 9.0 mph14.5 kmh 29.84 in1010.5 mb 0.00 in0.0 mm 0.00 in0.0 mm 0.35 in8.9 mm
01:57 PM 71.2°F21.8°C 62.2°F16.8°C 73% 4.0 mph WNW6.4 kmh WNW 13.0 mph20.9 kmh 29.84 in1010.5 mb 0.00 in0.0 mm 0.00 in0.0 mm 0.35 in8.9 mm
01:50 PM 70.5°F21.4°C 62.6°F17.0°C 76% 7.0 mph W11.3 kmh W 17.0 mph27.4 kmh 29.84 in1010.5 mb 0.00 in0.0 mm 0.00 in0.0 mm 0.35 in8.9 mm
01:43 PM 70.0°F21.1°C 61.7°F16.5°C 75% 5.0 mph W8.0 kmh W 17.0 mph27.4 kmh 29.84 in1010.5 mb 0.00 in0.0 mm 0.00 in0.0 mm 0.35 in8.9 mm
01:36 PM 69.4°F20.8°C 60.8°F16.0°C 74% 5.0 mph W8.0 kmh W 13.0 mph20.9 kmh 29.84 in1010.5 mb 0.00 in0.0 mm 0.00 in0.0 mm 0.35 in8.9 mm
01:29 PM 70.2°F21.2°C 61.5°F16.4°C 74% 3.0 mph W4.8 kmh W 15.0 mph24.1 kmh 29.84 in1010.5 mb 0.00 in0.0 mm 0.00 in0.0 mm 0.35 in8.9 mm
01:22 PM 69.6°F20.9°C 61.0°F16.1°C 74% 4.0 mph WNW6.4 kmh WNW 15.0 mph24.1 kmh 29.84 in1010.5 mb 0.00 in0.0 mm 0.00 in0.0 mm 0.35 in8.9 mm
01:15 PM 69.3°F20.7°C 62.4°F16.9°C 79% 3.0 mph WNW4.8 kmh WNW 8.0 mph12.9 kmh 29.84 in1010.5 mb 0.00 in0.0 mm 0.00 in0.0 mm 0.35 in8.9 mm
01:08 PM 69.1°F20.6°C 61.2°F16.2°C 76% 3.0 mph WNW4.8 kmh WNW 8.0 mph12.9 kmh 29.84 in1010.5 mb 0.00 in0.0 mm 0.00 in0.0 mm 0.35 in8.9 mm
01:01 PM 70.0°F21.1°C 62.1°F16.7°C 76% 3.0 mph WNW4.8 kmh WNW 8.0 mph12.9 kmh 29.84 in1010.5 mb 0.00 in0.0 mm 0.00 in0.0 mm 0.35 in8.9 mm
12:54 PM 69.8°F21.0°C 61.9°F16.6°C 76% 4.0 mph W6.4 kmh W 11.0 mph17.7 kmh 29.84 in1010.5 mb 0.00 in0.0 mm 0.00 in0.0 mm 0.35 in8.9 mm
12:47 PM 69.6°F20.9°C 62.4°F16.9°C 78% 3.0 mph W4.8 kmh W 11.0 mph17.7 kmh 29.84 in1010.5 mb 0.00 in0.0 mm 0.00 in0.0 mm 0.35 in8.9 mm
12:40 PM 68.4°F20.2°C 62.1°F16.7°C 80% 3.0 mph W4.8 kmh W 13.0 mph20.9 kmh 29.84 in1010.5 mb 0.00 in0.0 mm 0.00 in0.0 mm 0.35 in8.9 mm
12:33 PM 67.8°F19.9°C 61.2°F16.2°C 79% 4.0 mph WNW6.4 kmh WNW 13.0 mph20.9 kmh 29.84 in1010.5 mb 0.00 in0.0 mm 0.00 in0.0 mm 0.35 in8.9 mm
12:26 PM 68.2°F20.1°C 62.1°F16.7°C 81% 3.0 mph WNW4.8 kmh WNW 13.0 mph20.9 kmh 29.83 in1010.2 mb 0.00 in0.0 mm 0.00 in0.0 mm 0.35 in8.9 mm
12:19 PM 67.8°F19.9°C 62.4°F16.9°C 83% 3.0 mph W4.8 kmh W 8.0 mph12.9 kmh 29.83 in1010.2 mb 0.00 in0.0 mm 0.00 in0.0 mm 0.35 in8.9 mm
12:12 PM 67.5°F19.7°C 62.4°F16.9°C 84% 3.0 mph WNW4.8 kmh WNW 8.0 mph12.9 kmh 29.83 in1010.2 mb 0.00 in0.0 mm 0.00 in0.0 mm 0.35 in8.9 mm
12:05 PM 67.6°F19.8°C 62.6°F17.0°C 84% 1.0 mph WNW1.6 kmh WNW 8.0 mph12.9 kmh 29.83 in1010.2 mb 0.00 in0.0 mm 0.00 in0.0 mm 0.35 in8.9 mm
11:58 AM 66.9°F19.4°C 62.4°F16.9°C 85% 1.0 mph WSW1.6 kmh WSW 7.0 mph11.3 kmh 29.83 in1010.2 mb 0.00 in0.0 mm 0.00 in0.0 mm 0.35 in8.9 mm
11:51 AM 66.4°F19.1°C 62.2°F16.8°C 87% 3.0 mph W4.8 kmh W 7.0 mph11.3 kmh 29.83 in1010.2 mb 0.00 in0.0 mm 0.00 in0.0 mm 0.35 in8.9 mm
11:44 AM 65.1°F18.4°C 60.6°F15.9°C 85% 1.0 mph W1.6 kmh W 7.0 mph11.3 kmh 29.83 in1010.2 mb 0.00 in0.0 mm 0.00 in0.0 mm 0.35 in8.9 mm
11:37 AM 64.2°F17.9°C 60.3°F15.7°C 87% 1.0 mph W1.6 kmh W 7.0 mph11.3 kmh 29.83 in1010.2 mb 0.00 in0.0 mm 0.00 in0.0 mm 0.35 in8.9 mm
11:30 AM 64.2°F17.9°C 59.9°F15.5°C 86% Calm Calm 4.0 mph6.4 kmh 29.83 in1010.2 mb 0.00 in0.0 mm 0.00 in0.0 mm 0.35 in8.9 mm
11:23 AM 64.2°F17.9°C 59.0°F15.0°C 83% 1.0 mph SW1.6 kmh SW 4.0 mph6.4 kmh 29.83 in1010.2 mb 0.00 in0.0 mm 0.00 in0.0 mm 0.35 in8.9 mm
11:16 AM 63.7°F17.6°C 58.5°F14.7°C 83% Calm Calm 4.0 mph6.4 kmh 29.83 in1010.2 mb 0.00 in0.0 mm 0.00 in0.0 mm 0.35 in8.9 mm
11:09 AM 63.3°F17.4°C 58.1°F14.5°C 83% Calm Calm 1.0 mph1.6 kmh 29.83 in1010.2 mb 0.00 in0.0 mm 0.00 in0.0 mm 0.35 in8.9 mm
11:02 AM 63.3°F17.4°C 58.1°F14.5°C 83% Calm Calm 3.0 mph4.8 kmh 29.83 in1010.2 mb 0.00 in0.0 mm 0.00 in0.0 mm 0.35 in8.9 mm
10:55 AM 63.1°F17.3°C 57.2°F14.0°C 81% 1.0 mph SSW1.6 kmh SSW 8.0 mph12.9 kmh 29.82 in1009.8 mb 0.00 in0.0 mm 0.00 in0.0 mm 0.35 in8.9 mm
10:48 AM 63.0°F17.2°C 57.0°F13.9°C 81% 1.0 mph SSW1.6 kmh SSW 8.0 mph12.9 kmh 29.82 in1009.8 mb 0.00 in0.0 mm 0.00 in0.0 mm 0.35 in8.9 mm
10:41 AM 62.6°F17.0°C 56.3°F13.5°C 80% 1.0 mph SW1.6 kmh SW 4.0 mph6.4 kmh 29.82 in1009.8 mb 0.00 in0.0 mm 0.00 in0.0 mm 0.35 in8.9 mm
10:34 AM 62.4°F16.9°C 56.5°F13.6°C 81% 1.0 mph SW1.6 kmh SW 4.0 mph6.4 kmh 29.82 in1009.8 mb 0.00 in0.0 mm 0.00 in0.0 mm 0.35 in8.9 mm
10:27 AM 62.2°F16.8°C 56.1°F13.4°C 80% Calm Calm 3.0 mph4.8 kmh 29.82 in1009.8 mb 0.00 in0.0 mm 0.00 in0.0 mm 0.35 in8.9 mm
10:20 AM 62.1°F16.7°C 55.9°F13.3°C 80% Calm Calm 1.0 mph1.6 kmh 29.82 in1009.8 mb 0.00 in0.0 mm 0.00 in0.0 mm 0.35 in8.9 mm
10:13 AM 62.1°F16.7°C 56.1°F13.4°C 81% Calm Calm 4.0 mph6.4 kmh 29.82 in1009.8 mb 0.00 in0.0 mm 0.00 in0.0 mm 0.35 in8.9 mm
10:06 AM 62.1°F16.7°C 56.1°F13.4°C 81% Calm Calm 3.0 mph4.8 kmh 29.82 in1009.8 mb 0.00 in0.0 mm 0.00 in0.0 mm 0.35 in8.9 mm
09:59 AM 61.9°F16.6°C 55.9°F13.3°C 81% Calm Calm 3.0 mph4.8 kmh 29.82 in1009.8 mb 0.00 in0.0 mm 0.00 in0.0 mm 0.35 in8.9 mm
09:52 AM 62.1°F16.7°C 55.8°F13.2°C 80% Calm Calm 4.0 mph6.4 kmh 29.82 in1009.8 mb 0.00 in0.0 mm 0.00 in0.0 mm 0.35 in8.9 mm
09:45 AM 62.2°F16.8°C 56.3°F13.5°C 81% 1.0 mph S1.6 kmh S 5.0 mph8.0 kmh 29.82 in1009.8 mb 0.00 in0.0 mm 0.00 in0.0 mm 0.35 in8.9 mm
09:38 AM 62.6°F17.0°C 55.2°F12.9°C 77% Calm Calm 3.0 mph4.8 kmh 29.82 in1009.8 mb 0.00 in0.0 mm 0.00 in0.0 mm 0.35 in8.9 mm
09:31 AM 62.4°F16.9°C 54.1°F12.3°C 74% Calm Calm 3.0 mph4.8 kmh 29.82 in1009.8 mb 0.00 in0.0 mm 0.00 in0.0 mm 0.35 in8.9 mm
09:24 AM 62.1°F16.7°C 53.6°F12.0°C 74% Calm Calm 3.0 mph4.8 kmh 29.82 in1009.8 mb 0.00 in0.0 mm 0.00 in0.0 mm 0.35 in8.9 mm
09:17 AM 61.3°F16.3°C 54.5°F12.5°C 78% Calm Calm -- 29.83 in1010.2 mb 0.02 in0.5 mm 0.00 in0.0 mm 0.35 in8.9 mm
09:10 AM 61.3°F16.3°C 54.3°F12.4°C 78% Calm Calm -- 29.83 in1010.2 mb 0.05 in1.3 mm 0.00 in0.0 mm 0.35 in8.9 mm
09:03 AM 61.2°F16.2°C 54.3°F12.4°C 78% Calm Calm -- 29.83 in1010.2 mb 0.08 in2.0 mm 0.00 in0.0 mm 0.35 in8.9 mm
08:56 AM 61.0°F16.1°C 54.5°F12.5°C 79% Calm Calm 1.0 mph1.6 kmh 29.84 in1010.5 mb 0.10 in2.5 mm 0.00 in0.0 mm 0.35 in8.9 mm
08:49 AM 61.0°F16.1°C 54.7°F12.6°C 80% Calm Calm 1.0 mph1.6 kmh 29.83 in1010.2 mb 0.14 in3.6 mm 0.00 in0.0 mm 0.35 in8.9 mm
08:42 AM 60.8°F16.0°C 54.5°F12.5°C 80% Calm Calm 1.0 mph1.6 kmh 29.82 in1009.8 mb 0.17 in4.3 mm 0.00 in0.0 mm 0.35 in8.9 mm
08:35 AM 60.6°F15.9°C 54.9°F12.7°C 81% Calm Calm -- 29.81 in1009.5 mb 0.18 in4.6 mm 0.00 in0.0 mm 0.35 in8.9 mm
08:28 AM 60.6°F15.9°C 54.7°F12.6°C 81% Calm Calm -- 29.83 in1010.2 mb 0.20 in5.1 mm 0.00 in0.0 mm 0.35 in8.9 mm
08:21 AM 60.4°F15.8°C 55.0°F12.8°C 82% Calm Calm 4.0 mph6.4 kmh 29.83 in1010.2 mb 0.22 in5.6 mm 0.00 in0.0 mm 0.34 in8.6 mm
08:14 AM 60.6°F15.9°C 55.4°F13.0°C 83% Calm Calm 4.0 mph6.4 kmh 29.87 in1011.5 mb 0.23 in5.8 mm 0.00 in0.0 mm 0.31 in7.9 mm
08:07 AM 60.6°F15.9°C 55.8°F13.2°C 84% 1.0 mph NW1.6 kmh NW 5.0 mph8.0 kmh 29.87 in1011.5 mb 0.23 in5.8 mm 0.26 in6.6 mm 0.28 in7.1 mm
08:00 AM 61.0°F16.1°C 56.3°F13.5°C 85% 1.0 mph NW1.6 kmh NW 9.0 mph14.5 kmh 29.87 in1011.5 mb 0.20 in5.1 mm 0.03 in0.8 mm 0.26 in6.6 mm
07:53 AM 61.2°F16.2°C 56.5°F13.6°C 85% 1.0 mph NW1.6 kmh NW 9.0 mph14.5 kmh 29.87 in1011.5 mb 0.17 in4.3 mm 0.34 in8.6 mm 0.22 in5.6 mm
07:46 AM 61.3°F16.3°C 56.8°F13.8°C 85% 1.0 mph NW1.6 kmh NW 7.0 mph11.3 kmh 29.87 in1011.5 mb 0.13 in3.3 mm 0.09 in2.3 mm 0.19 in4.8 mm
07:39 AM 61.7°F16.5°C 57.2°F14.0°C 85% Calm Calm 5.0 mph8.0 kmh 29.87 in1011.5 mb 0.12 in3.0 mm 0.00 in0.0 mm 0.17 in4.3 mm
07:32 AM 61.9°F16.6°C 57.4°F14.1°C 85% 1.0 mph NW1.6 kmh NW 4.0 mph6.4 kmh 29.87 in1011.5 mb 0.14 in3.6 mm 0.09 in2.3 mm 0.16 in4.1 mm
07:25 AM 62.1°F16.7°C 57.2°F14.0°C 84% 1.0 mph WSW1.6 kmh WSW 4.0 mph6.4 kmh 29.87 in1011.5 mb 0.13 in3.3 mm 0.26 in6.6 mm 0.13 in3.3 mm
07:18 AM 62.1°F16.7°C 57.4°F14.1°C 85% 1.0 mph SW1.6 kmh SW 4.0 mph6.4 kmh 29.87 in1011.5 mb 0.10 in2.5 mm 0.34 in8.6 mm 0.11 in2.8 mm
07:11 AM 61.9°F16.6°C 57.2°F14.0°C 85% Calm Calm 3.0 mph4.8 kmh 29.86 in1011.2 mb 0.06 in1.5 mm 0.00 in0.0 mm 0.06 in1.5 mm
07:04 AM 61.5°F16.4°C 57.0°F13.9°C 85% Calm Calm 3.0 mph4.8 kmh 29.85 in1010.8 mb 0.06 in1.5 mm 0.00 in0.0 mm 0.06 in1.5 mm
06:57 AM 61.3°F16.3°C 57.0°F13.9°C 86% Calm Calm -- 29.84 in1010.5 mb 0.06 in1.5 mm 0.00 in0.0 mm 0.06 in1.5 mm
06:50 AM 61.3°F16.3°C 57.2°F14.0°C 86% Calm Calm -- 29.83 in1010.2 mb 0.06 in1.5 mm 0.09 in2.3 mm 0.06 in1.5 mm
06:43 AM 61.5°F16.4°C 57.6°F14.2°C 87% Calm Calm -- 29.82 in1009.8 mb 0.05 in1.3 mm 0.09 in2.3 mm 0.05 in1.3 mm
06:36 AM 61.5°F16.4°C 57.6°F14.2°C 87% Calm Calm -- 29.83 in1010.2 mb 0.04 in1.0 mm 0.26 in6.6 mm 0.04 in1.0 mm
06:29 AM 61.3°F16.3°C 57.6°F14.2°C 87% Calm Calm -- 29.83 in1010.2 mb 0.01 in0.3 mm 0.09 in2.3 mm 0.01 in0.3 mm
06:22 AM 61.0°F16.1°C 57.0°F13.9°C 87% Calm Calm -- 29.82 in1009.8 mb 0.00 in0.0 mm 0.00 in0.0 mm 0.00 in0.0 mm
06:15 AM 60.6°F15.9°C 56.8°F13.8°C 87% Calm Calm 1.0 mph1.6 kmh 29.82 in1009.8 mb 0.00 in0.0 mm 0.00 in0.0 mm 0.00 in0.0 mm
06:08 AM 60.4°F15.8°C 56.1°F13.4°C 86% Calm Calm -- 29.82 in1009.8 mb 0.00 in0.0 mm 0.00 in0.0 mm 0.00 in0.0 mm
06:01 AM 60.3°F15.7°C 55.9°F13.3°C 86% Calm Calm 1.0 mph1.6 kmh 29.82 in1009.8 mb 0.00 in0.0 mm 0.00 in0.0 mm 0.00 in0.0 mm
05:54 AM 60.1°F15.6°C 55.6°F13.1°C 85% Calm Calm -- 29.82 in1009.8 mb 0.00 in0.0 mm 0.00 in0.0 mm 0.00 in0.0 mm
05:47 AM 59.9°F15.5°C 55.4°F13.0°C 85% Calm Calm -- 29.82 in1009.8 mb 0.00 in0.0 mm 0.00 in0.0 mm 0.00 in0.0 mm
05:40 AM 59.5°F15.3°C 55.0°F12.8°C 85% Calm Calm -- 29.82 in1009.8 mb 0.00 in0.0 mm 0.00 in0.0 mm 0.00 in0.0 mm
05:33 AM 59.5°F15.3°C 55.0°F12.8°C 85% Calm Calm -- 29.82 in1009.8 mb 0.00 in0.0 mm 0.00 in0.0 mm 0.00 in0.0 mm
05:26 AM 59.4°F15.2°C 54.9°F12.7°C 85% Calm Calm -- 29.82 in1009.8 mb 0.00 in0.0 mm 0.00 in0.0 mm 0.00 in0.0 mm
05:19 AM 59.4°F15.2°C 54.9°F12.7°C 85% Calm Calm -- 29.83 in1010.2 mb 0.00 in0.0 mm 0.00 in0.0 mm 0.00 in0.0 mm
05:12 AM 59.4°F15.2°C 54.9°F12.7°C 85% Calm Calm -- 29.83 in1010.2 mb 0.00 in0.0 mm 0.00 in0.0 mm 0.00 in0.0 mm
05:05 AM 59.2°F15.1°C 54.7°F12.6°C 85% Calm Calm -- 29.83 in1010.2 mb 0.00 in0.0 mm 0.00 in0.0 mm 0.00 in0.0 mm
04:58 AM 59.4°F15.2°C 54.9°F12.7°C 85% Calm Calm -- 29.84 in1010.5 mb 0.00 in0.0 mm 0.00 in0.0 mm 0.00 in0.0 mm
04:51 AM 59.4°F15.2°C 54.9°F12.7°C 85% Calm Calm -- 29.84 in1010.5 mb 0.00 in0.0 mm 0.00 in0.0 mm 0.00 in0.0 mm
04:44 AM 59.4°F15.2°C 54.9°F12.7°C 85% Calm Calm -- 29.84 in1010.5 mb 0.00 in0.0 mm 0.00 in0.0 mm 0.00 in0.0 mm
04:37 AM 59.4°F15.2°C 54.9°F12.7°C 85% Calm Calm -- 29.84 in1010.5 mb 0.00 in0.0 mm 0.00 in0.0 mm 0.00 in0.0 mm
04:30 AM 59.4°F15.2°C 54.9°F12.7°C 85% Calm Calm -- 29.84 in1010.5 mb 0.00 in0.0 mm 0.00 in0.0 mm 0.00 in0.0 mm
04:23 AM 59.4°F15.2°C 54.5°F12.5°C 84% Calm Calm -- 29.84 in1010.5 mb 0.00 in0.0 mm 0.00 in0.0 mm 0.00 in0.0 mm
04:16 AM 59.4°F15.2°C 54.5°F12.5°C 84% Calm Calm -- 29.85 in1010.8 mb 0.00 in0.0 mm 0.00 in0.0 mm 0.00 in0.0 mm
04:09 AM 59.4°F15.2°C 54.5°F12.5°C 84% Calm Calm -- 29.85 in1010.8 mb 0.00 in0.0 mm 0.00 in0.0 mm 0.00 in0.0 mm
04:02 AM 59.2°F15.1°C 54.3°F12.4°C 84% Calm Calm -- 29.85 in1010.8 mb 0.00 in0.0 mm 0.00 in0.0 mm 0.00 in0.0 mm
03:55 AM 59.2°F15.1°C 54.3°F12.4°C 84% Calm Calm -- 29.85 in1010.8 mb 0.00 in0.0 mm 0.00 in0.0 mm 0.00 in0.0 mm
03:48 AM 58.8°F14.9°C 54.1°F12.3°C 84% Calm Calm -- 29.85 in1010.8 mb 0.00 in0.0 mm 0.00 in0.0 mm 0.00 in0.0 mm
03:41 AM 58.8°F14.9°C 54.0°F12.2°C 84% Calm Calm -- 29.85 in1010.8 mb 0.00 in0.0 mm 0.00 in0.0 mm 0.00 in0.0 mm
03:34 AM 58.6°F14.8°C 53.8°F12.1°C 84% Calm Calm -- 29.85 in1010.8 mb 0.00 in0.0 mm 0.00 in0.0 mm 0.00 in0.0 mm
03:27 AM 58.5°F14.7°C 54.0°F12.2°C 85% Calm Calm -- 29.86 in1011.2 mb 0.00 in0.0 mm 0.00 in0.0 mm 0.00 in0.0 mm
03:20 AM 58.5°F14.7°C 54.0°F12.2°C 85% Calm Calm -- 29.86 in1011.2 mb 0.00 in0.0 mm 0.00 in0.0 mm 0.00 in0.0 mm
03:13 AM 58.3°F14.6°C 53.8°F12.1°C 85% Calm Calm -- 29.86 in1011.2 mb 0.00 in0.0 mm 0.00 in0.0 mm 0.00 in0.0 mm
03:06 AM 58.1°F14.5°C 53.6°F12.0°C 85% Calm Calm -- 29.86 in1011.2 mb 0.00 in0.0 mm 0.00 in0.0 mm 0.00 in0.0 mm
02:59 AM 57.9°F14.4°C 53.8°F12.1°C 86% Calm Calm -- 29.86 in1011.2 mb 0.00 in0.0 mm 0.00 in0.0 mm 0.00 in0.0 mm
02:52 AM 57.9°F14.4°C 53.8°F12.1°C 86% Calm Calm -- 29.86 in1011.2 mb 0.00 in0.0 mm 0.00 in0.0 mm 0.00 in0.0 mm
02:45 AM 57.7°F14.3°C 53.2°F11.8°C 85% Calm Calm -- 29.87 in1011.5 mb 0.00 in0.0 mm 0.00 in0.0 mm 0.00 in0.0 mm
02:38 AM 57.6°F14.2°C 53.4°F11.9°C 86% Calm Calm -- 29.87 in1011.5 mb 0.00 in0.0 mm 0.00 in0.0 mm 0.00 in0.0 mm
02:31 AM 57.4°F14.1°C 53.2°F11.8°C 86% Calm Calm -- 29.87 in1011.5 mb 0.00 in0.0 mm 0.00 in0.0 mm 0.00 in0.0 mm
02:24 AM 57.4°F14.1°C 53.1°F11.7°C 86% Calm Calm -- 29.88 in1011.9 mb 0.00 in0.0 mm 0.00 in0.0 mm 0.00 in0.0 mm
02:17 AM 57.4°F14.1°C 53.4°F11.9°C 87% Calm Calm -- 29.88 in1011.9 mb 0.00 in0.0 mm 0.00 in0.0 mm 0.00 in0.0 mm
02:10 AM 57.4°F14.1°C 53.6°F12.0°C 87% Calm Calm -- 29.88 in1011.9 mb 0.00 in0.0 mm 0.00 in0.0 mm 0.00 in0.0 mm
02:03 AM 57.6°F14.2°C 53.8°F12.1°C 87% Calm Calm -- 29.89 in1012.2 mb 0.00 in0.0 mm 0.00 in0.0 mm 0.00 in0.0 mm
01:56 AM 57.7°F14.3°C 53.8°F12.1°C 87% Calm Calm -- 29.89 in1012.2 mb 0.00 in0.0 mm 0.00 in0.0 mm 0.00 in0.0 mm
01:49 AM 57.9°F14.4°C 53.8°F12.1°C 86% Calm Calm -- 29.89 in1012.2 mb 0.00 in0.0 mm 0.00 in0.0 mm 0.00 in0.0 mm
01:42 AM 58.3°F14.6°C 54.0°F12.2°C 86% Calm Calm -- 29.89 in1012.2 mb 0.00 in0.0 mm 0.00 in0.0 mm 0.00 in0.0 mm
01:35 AM 58.5°F14.7°C 54.1°F12.3°C 86% Calm Calm -- 29.88 in1011.9 mb 0.00 in0.0 mm 0.00 in0.0 mm 0.00 in0.0 mm
01:28 AM 58.6°F14.8°C 54.5°F12.5°C 86% Calm Calm -- 29.88 in1011.9 mb 0.00 in0.0 mm 0.00 in0.0 mm 0.00 in0.0 mm
01:21 AM 59.0°F15.0°C 54.9°F12.7°C 86% Calm Calm -- 29.89 in1012.2 mb 0.00 in0.0 mm 0.00 in0.0 mm 0.00 in0.0 mm
01:14 AM 59.4°F15.2°C 54.9°F12.7°C 85% Calm Calm -- 29.89 in1012.2 mb 0.00 in0.0 mm 0.00 in0.0 mm 0.00 in0.0 mm
01:07 AM 59.5°F15.3°C 55.0°F12.8°C 85% Calm Calm -- 29.89 in1012.2 mb 0.00 in0.0 mm 0.00 in0.0 mm 0.00 in0.0 mm
01:00 AM 59.9°F15.5°C 55.4°F13.0°C 85% Calm Calm -- 29.90 in1012.5 mb 0.00 in0.0 mm 0.00 in0.0 mm 0.00 in0.0 mm
12:53 AM 60.1°F15.6°C 55.6°F13.1°C 85% Calm Calm -- 29.90 in1012.5 mb 0.00 in0.0 mm 0.00 in0.0 mm 0.00 in0.0 mm
12:46 AM 60.4°F15.8°C 55.6°F13.1°C 84% Calm Calm -- 29.90 in1012.5 mb 0.00 in0.0 mm 0.00 in0.0 mm 0.00 in0.0 mm
12:39 AM 60.6°F15.9°C 55.8°F13.2°C 84% Calm Calm -- 29.91 in1012.9 mb 0.00 in0.0 mm 0.00 in0.0 mm 0.00 in0.0 mm
12:32 AM 60.8°F16.0°C 55.9°F13.3°C 84% Calm Calm -- 29.91 in1012.9 mb 0.00 in0.0 mm 0.00 in0.0 mm 0.00 in0.0 mm
12:25 AM 61.2°F16.2°C 55.9°F13.3°C 83% Calm Calm -- 29.91 in1012.9 mb 0.00 in0.0 mm 0.00 in0.0 mm 0.00 in0.0 mm
12:18 AM 61.3°F16.3°C 56.1°F13.4°C 83% Calm Calm -- 29.91 in1012.9 mb 0.00 in0.0 mm 0.00 in0.0 mm 0.00 in0.0 mm
12:11 AM 61.3°F16.3°C 56.1°F13.4°C 83% Calm Calm 3.0 mph4.8 kmh 29.91 in1012.9 mb 0.00 in0.0 mm 0.00 in0.0 mm 0.00 in0.0 mm
12:04 AM 61.5°F16.4°C 55.9°F13.3°C 82% Calm Calm -- 29.91 in1012.9 mb 0.00 in0.0 mm 0.00 in0.0 mm 0.00 in0.0 mm